createdAt,value
2018-09-11T00:02:18.345Z,14.20
2018-09-11T00:04:46.093Z,14.20
2018-09-11T00:07:14.135Z,14.10
2018-09-11T00:09:41.951Z,14.10
2018-09-11T00:12:09.773Z,14.20
2018-09-11T00:14:37.571Z,14.10
2018-09-11T00:17:05.809Z,14.10
2018-09-11T00:19:33.635Z,14.00
2018-09-11T00:22:01.440Z,14.00
2018-09-11T00:24:29.541Z,13.90
2018-09-11T00:26:57.313Z,13.90
2018-09-11T00:29:25.077Z,13.90
2018-09-11T00:31:53.208Z,14.00
2018-09-11T00:34:21.423Z,14.10
2018-09-11T00:36:49.383Z,14.00
2018-09-11T00:39:17.154Z,14.00
2018-09-11T00:41:45.226Z,14.10
2018-09-11T00:44:13.107Z,14.00
2018-09-11T00:46:40.889Z,14.10
2018-09-11T00:49:08.717Z,14.00
2018-09-11T00:51:36.569Z,14.00
2018-09-11T00:54:04.310Z,14.10
2018-09-11T00:56:32.111Z,14.10
2018-09-11T00:58:59.989Z,14.10
2018-09-11T01:01:27.862Z,14.10
2018-09-11T01:03:55.554Z,13.90
2018-09-11T01:06:23.291Z,13.90
2018-09-11T01:08:51.122Z,13.90
2018-09-11T01:11:19.012Z,13.80
2018-09-11T01:13:47.014Z,13.80
2018-09-11T01:16:15.024Z,13.70
2018-09-11T01:18:42.775Z,13.70
2018-09-11T01:21:10.739Z,13.70
2018-09-11T01:23:38.548Z,13.70
2018-09-11T01:26:06.358Z,13.70
2018-09-11T01:28:34.334Z,13.60
2018-09-11T01:31:02.156Z,13.60
2018-09-11T01:33:29.888Z,13.60
2018-09-11T01:35:57.881Z,13.50
2018-09-11T01:38:25.651Z,13.50
2018-09-11T01:40:53.471Z,13.50
2018-09-11T01:43:21.315Z,13.50
2018-09-11T01:45:49.034Z,13.50
2018-09-11T01:48:16.814Z,13.60
2018-09-11T01:50:44.554Z,13.40
2018-09-11T01:53:12.411Z,13.50
2018-09-11T01:55:40.183Z,13.40
2018-09-11T01:58:08.223Z,13.50
2018-09-11T02:00:36.223Z,13.50
2018-09-11T02:03:04.010Z,13.50
2018-09-11T02:05:31.901Z,13.50
2018-09-11T02:07:59.755Z,13.60
2018-09-11T02:10:27.586Z,13.60
2018-09-11T02:12:55.313Z,13.70
2018-09-11T02:15:23.119Z,13.80
2018-09-11T02:17:51.066Z,13.80
2018-09-11T02:20:18.884Z,13.90
2018-09-11T02:22:46.609Z,13.90
2018-09-11T02:25:14.541Z,14.00
2018-09-11T02:27:42.325Z,14.00
2018-09-11T02:30:10.127Z,14.10
2018-09-11T02:32:37.971Z,14.20
2018-09-11T02:35:06.162Z,14.30
2018-09-11T02:37:34.041Z,14.30
2018-09-11T02:40:01.855Z,14.40
2018-09-11T02:42:29.594Z,14.50
2018-09-11T02:44:57.389Z,14.50
2018-09-11T02:47:25.149Z,14.50
2018-09-11T02:49:52.916Z,14.50
2018-09-11T02:52:20.788Z,14.60
2018-09-11T02:54:48.608Z,14.60
2018-09-11T02:57:16.795Z,14.50
2018-09-11T02:59:44.648Z,14.50
2018-09-11T03:02:12.642Z,14.50
2018-09-11T03:04:40.538Z,14.50
2018-09-11T03:07:08.314Z,14.30
2018-09-11T03:09:36.276Z,14.20
2018-09-11T03:12:04.237Z,14.20
2018-09-11T03:14:32.117Z,14.10
2018-09-11T03:17:00.032Z,14.10
2018-09-11T03:19:27.954Z,14.10
2018-09-11T03:21:55.719Z,14.10
2018-09-11T03:24:23.596Z,14.10
2018-09-11T03:26:51.389Z,14.00
2018-09-11T03:29:19.302Z,14.00
2018-09-11T03:31:47.106Z,14.00
2018-09-11T03:34:15.005Z,14.00
2018-09-11T03:36:42.903Z,14.00
2018-09-11T03:39:11.355Z,14.00
2018-09-11T03:41:39.369Z,13.90
2018-09-11T03:44:07.350Z,13.90
2018-09-11T03:46:35.059Z,13.80
2018-09-11T03:49:03.012Z,13.70
2018-09-11T03:51:30.912Z,13.70
2018-09-11T03:53:58.796Z,13.80
2018-09-11T03:56:26.579Z,13.70
2018-09-11T03:58:54.408Z,13.70
2018-09-11T04:01:22.335Z,13.60
2018-09-11T04:03:50.201Z,13.60
2018-09-11T04:06:18.085Z,13.60
2018-09-11T04:08:46.084Z,13.60
2018-09-11T04:11:13.872Z,13.50
2018-09-11T04:13:41.874Z,13.50
2018-09-11T04:16:09.811Z,13.50
2018-09-11T04:18:37.610Z,13.40
2018-09-11T04:21:05.596Z,13.30
2018-09-11T04:23:33.510Z,13.20
2018-09-11T04:26:02.163Z,13.20
2018-09-11T04:28:30.011Z,13.30
2018-09-11T04:30:57.824Z,13.40
2018-09-11T04:33:25.719Z,13.40
2018-09-11T04:35:53.537Z,13.50
2018-09-11T04:38:21.379Z,13.50
2018-09-11T04:40:49.640Z,13.50
2018-09-11T04:43:17.632Z,13.60
2018-09-11T04:45:45.616Z,13.70
2018-09-11T04:48:13.575Z,13.90
2018-09-11T04:50:41.539Z,14.00
2018-09-11T04:53:09.612Z,14.20
2018-09-11T04:55:37.823Z,14.30
2018-09-11T04:58:06.205Z,14.40
2018-09-11T05:00:33.987Z,14.50
2018-09-11T05:03:01.915Z,14.60
2018-09-11T05:05:29.898Z,14.70
2018-09-11T05:07:57.936Z,14.70
2018-09-11T05:10:26.073Z,14.80
2018-09-11T05:12:53.934Z,14.90
2018-09-11T05:15:21.947Z,15.00
2018-09-11T05:17:49.873Z,15.10
2018-09-11T05:20:18.257Z,15.20
2018-09-11T05:22:46.646Z,15.30
2018-09-11T05:25:14.756Z,15.50
2018-09-11T05:27:42.731Z,15.60
2018-09-11T05:30:10.646Z,15.70
2018-09-11T05:32:38.672Z,15.80
2018-09-11T05:35:06.556Z,15.80
2018-09-11T05:37:34.690Z,15.90
2018-09-11T05:40:02.530Z,15.90
2018-09-11T05:42:30.308Z,16.00
2018-09-11T05:44:58.203Z,16.10
2018-09-11T05:47:26.219Z,16.10
2018-09-11T05:49:54.034Z,16.00
2018-09-11T05:52:21.937Z,16.00
2018-09-11T05:54:50.264Z,16.00
2018-09-11T05:57:18.188Z,16.20
2018-09-11T05:59:46.285Z,16.20
2018-09-11T06:02:14.591Z,16.20
2018-09-11T06:04:42.647Z,16.30
2018-09-11T06:07:10.834Z,16.30
2018-09-11T06:09:39.195Z,16.40
2018-09-11T06:12:07.205Z,16.50
2018-09-11T06:14:35.235Z,16.50
2018-09-11T06:17:03.159Z,16.60
2018-09-11T06:19:31.456Z,16.50
2018-09-11T06:21:59.476Z,16.50
2018-09-11T06:24:27.612Z,16.60
2018-09-11T06:26:55.812Z,16.50
2018-09-11T06:29:23.679Z,16.50
2018-09-11T06:31:51.850Z,16.60
2018-09-11T06:34:19.750Z,16.60
2018-09-11T06:36:47.777Z,16.70
2018-09-11T06:39:15.643Z,16.70
2018-09-11T06:41:43.589Z,16.70
2018-09-11T06:44:11.486Z,16.90
2018-09-11T06:46:39.240Z,17.00
2018-09-11T06:49:07.162Z,17.00
2018-09-11T06:51:35.156Z,17.00
2018-09-11T06:54:03.270Z,17.00
2018-09-11T06:56:31.110Z,17.10
2018-09-11T06:58:59.248Z,17.10
2018-09-11T07:01:27.264Z,17.00
2018-09-11T07:03:55.090Z,17.10
2018-09-11T07:06:23.065Z,17.20
2018-09-11T07:08:50.859Z,17.20
2018-09-11T07:11:18.831Z,17.20
2018-09-11T07:13:46.914Z,17.10
2018-09-11T07:16:14.839Z,17.10
2018-09-11T07:18:42.720Z,17.10
2018-09-11T07:21:10.706Z,17.20
2018-09-11T07:23:38.427Z,17.10
2018-09-11T07:26:06.576Z,17.00
2018-09-11T07:28:34.392Z,17.00
2018-09-11T07:31:02.316Z,17.20
2018-09-11T07:33:30.197Z,17.20
2018-09-11T07:35:58.030Z,17.20
2018-09-11T07:38:25.822Z,17.40
2018-09-11T07:40:53.622Z,17.40
2018-09-11T07:43:21.510Z,17.50
2018-09-11T07:45:49.353Z,17.60
2018-09-11T07:48:17.152Z,17.70
2018-09-11T07:50:44.955Z,17.70
2018-09-11T07:53:12.935Z,17.80
2018-09-11T07:55:40.772Z,17.90
2018-09-11T07:58:08.798Z,18.00
2018-09-11T08:00:36.526Z,18.00
2018-09-11T08:03:04.592Z,18.10
2018-09-11T08:05:32.419Z,18.20
2018-09-11T08:08:00.317Z,18.30
2018-09-11T08:10:28.214Z,18.10
2018-09-11T08:12:56.207Z,18.20
2018-09-11T08:15:24.034Z,18.10
2018-09-11T08:17:52.319Z,18.20
2018-09-11T08:20:20.413Z,18.50
2018-09-11T08:22:48.686Z,18.50
2018-09-11T08:25:16.479Z,18.60
2018-09-11T08:27:44.447Z,18.70
2018-09-11T08:30:12.715Z,18.70
2018-09-11T08:32:40.626Z,18.60
2018-09-11T08:35:08.445Z,18.60
2018-09-11T08:37:36.363Z,18.70
2018-09-11T08:40:04.451Z,18.80
2018-09-11T08:42:33.138Z,18.70
2018-09-11T08:45:01.031Z,18.70
2018-09-11T08:47:28.859Z,18.90
2018-09-11T08:49:56.750Z,19.00
2018-09-11T08:52:24.590Z,19.00
2018-09-11T08:54:53.126Z,19.10
2018-09-11T08:57:20.963Z,19.20
2018-09-11T08:59:49.000Z,19.40
2018-09-11T09:02:16.848Z,19.40
2018-09-11T09:04:44.938Z,19.60
2018-09-11T09:07:12.784Z,19.60
2018-09-11T09:09:40.911Z,19.70
2018-09-11T09:12:08.671Z,19.80
2018-09-11T09:14:36.770Z,19.70
2018-09-11T09:17:04.567Z,19.80
2018-09-11T09:19:32.407Z,19.90
2018-09-11T09:22:00.325Z,19.90
2018-09-11T09:24:28.517Z,20.00
2018-09-11T09:26:56.523Z,19.90
2018-09-11T09:29:24.494Z,20.00
2018-09-11T09:31:52.362Z,20.10
2018-09-11T09:34:21.334Z,20.30
2018-09-11T09:36:49.399Z,20.50
2018-09-11T09:39:17.352Z,20.50
2018-09-11T09:41:45.319Z,20.60
2018-09-11T09:44:13.367Z,20.70
2018-09-11T09:46:41.327Z,20.50
2018-09-11T09:49:09.631Z,20.50
2018-09-11T09:51:37.502Z,20.70
2018-09-11T09:54:05.486Z,20.60
2018-09-11T09:56:33.607Z,20.50
2018-09-11T09:59:01.450Z,20.70
2018-09-11T10:01:34.637Z,20.90
2018-09-11T10:04:02.837Z,20.80
2018-09-11T10:06:31.116Z,20.80
2018-09-11T10:08:58.998Z,20.80
2018-09-11T10:11:26.827Z,20.90
2018-09-11T10:13:54.986Z,21.00
2018-09-11T10:16:22.904Z,20.90
2018-09-11T10:18:51.000Z,20.90
2018-09-11T10:21:18.740Z,21.10
2018-09-11T10:23:46.617Z,21.10
2018-09-11T10:26:14.581Z,21.00
2018-09-11T10:28:42.509Z,21.10
2018-09-11T10:31:10.715Z,21.10
2018-09-11T10:33:38.535Z,21.00
2018-09-11T10:36:06.405Z,21.00
2018-09-11T10:38:34.358Z,21.10
2018-09-11T10:41:02.161Z,21.20
2018-09-11T10:43:30.085Z,21.40
2018-09-11T10:45:57.962Z,21.60
2018-09-11T10:48:25.820Z,21.60
2018-09-11T10:50:53.724Z,21.80
2018-09-11T10:53:21.757Z,21.70
2018-09-11T10:55:49.708Z,21.70
2018-09-11T10:58:17.560Z,22.00
2018-09-11T11:00:45.337Z,22.10
2018-09-11T11:03:13.292Z,22.30
2018-09-11T11:05:41.121Z,22.30
2018-09-11T11:08:09.055Z,22.50
2018-09-11T11:10:36.962Z,22.40
2018-09-11T11:13:04.766Z,22.30
2018-09-11T11:15:32.890Z,22.20
2018-09-11T11:18:00.820Z,22.30
2018-09-11T11:20:28.685Z,22.40
2018-09-11T11:22:56.706Z,22.50
2018-09-11T11:25:24.727Z,22.60
2018-09-11T11:27:52.648Z,22.60
2018-09-11T11:30:21.099Z,22.80
2018-09-11T11:32:48.937Z,22.90
2018-09-11T11:35:16.959Z,22.80
2018-09-11T11:37:44.942Z,23.00
2018-09-11T11:40:12.931Z,23.10
2018-09-11T11:42:40.904Z,23.10
2018-09-11T11:45:09.091Z,23.10
2018-09-11T11:47:36.918Z,23.10
2018-09-11T11:50:04.927Z,23.10
2018-09-11T11:52:33.048Z,23.10
2018-09-11T11:55:01.003Z,23.00
2018-09-11T11:57:28.782Z,23.10
2018-09-11T11:59:56.796Z,23.30
2018-09-11T12:02:24.784Z,23.40
2018-09-11T12:04:52.756Z,23.40
2018-09-11T12:07:20.569Z,23.40
2018-09-11T12:09:48.670Z,23.50
2018-09-11T12:12:16.570Z,23.50
2018-09-11T12:14:44.809Z,23.50
2018-09-11T12:17:12.580Z,23.40
2018-09-11T12:19:40.507Z,23.50
2018-09-11T12:22:08.545Z,23.50
2018-09-11T12:24:36.439Z,23.60
2018-09-11T12:27:04.397Z,23.70
2018-09-11T12:29:32.339Z,23.90
2018-09-11T12:32:00.387Z,23.80
2018-09-11T12:34:28.321Z,23.80
2018-09-11T12:36:57.134Z,24.00
2018-09-11T12:39:25.185Z,24.00
2018-09-11T12:41:53.287Z,23.90
2018-09-11T12:44:21.420Z,23.90
2018-09-11T12:46:49.739Z,24.20
2018-09-11T12:49:17.537Z,24.30
2018-09-11T12:51:45.368Z,24.30
2018-09-11T12:54:13.372Z,24.40
2018-09-11T12:56:41.339Z,24.50
2018-09-11T12:59:09.381Z,24.60
2018-09-11T13:01:37.520Z,24.80
2018-09-11T13:04:05.420Z,24.80
2018-09-11T13:06:33.378Z,24.60
2018-09-11T13:09:01.501Z,24.60
2018-09-11T13:11:29.523Z,24.50
2018-09-11T13:13:57.394Z,24.50
2018-09-11T13:16:25.302Z,24.60
2018-09-11T13:18:53.176Z,24.80
2018-09-11T13:21:21.113Z,24.90
2018-09-11T13:23:49.099Z,25.00
2018-09-11T13:26:17.027Z,25.10
2018-09-11T13:28:44.992Z,25.20
2018-09-11T13:31:12.812Z,25.30
2018-09-11T13:33:40.791Z,25.40
2018-09-11T13:36:08.688Z,25.50
2018-09-11T13:38:36.454Z,25.60
2018-09-11T13:41:04.596Z,25.60
2018-09-11T13:43:32.424Z,25.40
2018-09-11T13:46:00.553Z,25.50
2018-09-11T13:48:28.396Z,25.40
2018-09-11T13:50:56.450Z,25.30
2018-09-11T13:53:24.396Z,25.40
2018-09-11T13:55:52.354Z,25.20
2018-09-11T13:58:20.297Z,25.20
2018-09-11T14:00:48.326Z,25.40
2018-09-11T14:03:16.366Z,25.50
2018-09-11T14:05:44.200Z,25.50
2018-09-11T14:08:12.035Z,25.50
2018-09-11T14:10:39.855Z,25.50
2018-09-11T14:13:07.823Z,25.40
2018-09-11T14:15:35.626Z,25.60
2018-09-11T14:18:03.621Z,25.50
2018-09-11T14:20:31.477Z,25.60
2018-09-11T14:22:59.296Z,25.50
2018-09-11T14:25:27.388Z,25.50
2018-09-11T14:27:55.497Z,25.60
2018-09-11T14:30:23.363Z,25.70
2018-09-11T14:32:51.271Z,25.60
2018-09-11T14:35:19.126Z,25.70
2018-09-11T14:37:47.313Z,25.80
2018-09-11T14:40:15.150Z,25.80
2018-09-11T14:42:43.262Z,25.90
2018-09-11T14:45:11.207Z,26.00
2018-09-11T14:47:42.248Z,25.90
2018-09-11T14:50:10.875Z,25.80
2018-09-11T14:52:39.266Z,25.80
2018-09-11T14:55:07.488Z,25.70
2018-09-11T14:57:35.801Z,25.70
2018-09-11T15:00:04.012Z,25.70
2018-09-11T15:02:32.019Z,25.50
2018-09-11T15:05:00.076Z,25.50
2018-09-11T15:07:28.036Z,25.50
2018-09-11T15:09:56.124Z,25.50
2018-09-11T15:12:24.103Z,25.60
2018-09-11T15:14:51.970Z,25.60
2018-09-11T15:17:20.020Z,25.70
2018-09-11T15:19:48.260Z,25.70
2018-09-11T15:22:16.238Z,25.60
2018-09-11T15:24:43.986Z,25.50
2018-09-11T15:27:11.870Z,25.60
2018-09-11T15:29:39.922Z,25.70
2018-09-11T15:32:08.138Z,25.60
2018-09-11T15:34:36.134Z,25.60
2018-09-11T15:37:04.202Z,25.60
2018-09-11T15:39:32.115Z,25.60
2018-09-11T15:42:00.143Z,25.50
2018-09-11T15:44:28.993Z,25.40
2018-09-11T15:46:57.700Z,25.50
2018-09-11T15:49:25.678Z,25.50
2018-09-11T15:51:53.494Z,25.50
2018-09-11T15:54:21.690Z,25.50
2018-09-11T15:56:49.455Z,25.50
2018-09-11T15:59:17.797Z,25.40
2018-09-11T16:01:45.690Z,25.40
2018-09-11T16:04:13.740Z,25.40
2018-09-11T16:06:41.604Z,25.40
2018-09-11T16:09:11.416Z,25.40
2018-09-11T16:11:39.405Z,25.40
2018-09-11T16:14:07.567Z,25.50
2018-09-11T16:16:35.837Z,25.50
2018-09-11T16:19:04.154Z,25.50
2018-09-11T16:21:32.257Z,25.40
2018-09-11T16:24:00.788Z,25.40
2018-09-11T16:26:28.698Z,25.40
2018-09-11T16:28:56.552Z,25.30
2018-09-11T16:31:24.527Z,25.30
2018-09-11T16:33:52.591Z,25.20
2018-09-11T16:36:20.484Z,25.10
2018-09-11T16:38:48.448Z,25.10
2018-09-11T16:41:16.583Z,25.10
2018-09-11T16:43:44.502Z,25.00
2018-09-11T16:46:12.459Z,25.10
2018-09-11T16:48:40.313Z,25.00
2018-09-11T16:51:08.227Z,24.90
2018-09-11T16:53:36.157Z,24.80
2018-09-11T16:56:04.332Z,24.80
2018-09-11T16:58:32.349Z,24.80
2018-09-11T17:01:00.152Z,24.70
2018-09-11T17:03:28.220Z,24.70
2018-09-11T17:05:56.088Z,24.70
2018-09-11T17:08:24.122Z,24.60
2018-09-11T17:10:52.024Z,24.60
2018-09-11T17:13:20.146Z,24.60
2018-09-11T17:15:48.262Z,24.60
2018-09-11T17:18:16.096Z,24.60
2018-09-11T17:20:44.191Z,24.50
2018-09-11T17:23:12.135Z,24.50
2018-09-11T17:25:40.058Z,24.50
2018-09-11T17:28:08.577Z,24.50
2018-09-11T17:30:36.464Z,24.40
2018-09-11T17:33:04.707Z,24.30
2018-09-11T17:35:32.895Z,24.20
2018-09-11T17:38:00.886Z,24.00
2018-09-11T17:40:29.039Z,23.90
2018-09-11T17:42:57.142Z,23.80
2018-09-11T17:45:25.100Z,23.80
2018-09-11T17:47:54.890Z,23.60
2018-09-11T17:50:22.838Z,23.40
2018-09-11T17:52:50.860Z,23.30
2018-09-11T17:55:18.885Z,23.10
2018-09-11T17:57:46.679Z,23.00
2018-09-11T18:00:14.687Z,22.90
2018-09-11T18:02:42.605Z,22.80
2018-09-11T18:05:10.647Z,22.60
2018-09-11T18:07:38.639Z,22.60
2018-09-11T18:10:07.067Z,22.50
2018-09-11T18:12:34.847Z,22.40
2018-09-11T18:15:02.909Z,22.30
2018-09-11T18:17:30.886Z,22.20
2018-09-11T18:19:59.128Z,22.20
2018-09-11T18:22:27.054Z,22.10
2018-09-11T18:24:55.224Z,22.00
2018-09-11T18:27:23.451Z,22.00
2018-09-11T18:29:51.339Z,21.90
2018-09-11T18:32:19.472Z,21.80
2018-09-11T18:34:47.733Z,21.80
2018-09-11T18:37:15.933Z,21.70
2018-09-11T18:39:43.873Z,21.70
2018-09-11T18:42:12.174Z,21.50
2018-09-11T18:44:40.102Z,21.40
2018-09-11T18:47:08.063Z,21.20
2018-09-11T18:49:36.029Z,21.20
2018-09-11T18:52:04.077Z,21.10
2018-09-11T18:54:32.186Z,21.10
2018-09-11T18:57:00.314Z,21.00
2018-09-11T18:59:28.524Z,21.00
2018-09-11T19:01:56.616Z,20.90
2018-09-11T19:04:24.665Z,20.90
2018-09-11T19:06:52.620Z,20.90
2018-09-11T19:09:20.823Z,20.90
2018-09-11T19:11:48.969Z,20.90
2018-09-11T19:14:17.427Z,20.90
2018-09-11T19:16:45.496Z,20.80
2018-09-11T19:19:13.576Z,20.50
2018-09-11T19:21:41.684Z,20.30
2018-09-11T19:24:09.768Z,20.10
2018-09-11T19:26:37.979Z,19.90
2018-09-11T19:29:05.851Z,19.80
2018-09-11T19:31:33.956Z,19.70
2018-09-11T19:34:01.982Z,19.70
2018-09-11T19:36:30.483Z,19.50
2018-09-11T19:38:58.493Z,19.50
2018-09-11T19:41:26.660Z,19.40
2018-09-11T19:43:54.671Z,19.30
2018-09-11T19:46:22.754Z,19.20
2018-09-11T19:48:50.635Z,19.20
2018-09-11T19:51:18.851Z,19.10
2018-09-11T19:53:46.753Z,19.10
2018-09-11T19:56:14.785Z,19.00
2018-09-11T19:58:42.784Z,19.00
2018-09-11T20:01:10.766Z,18.90
2018-09-11T20:03:38.869Z,18.90
2018-09-11T20:06:07.168Z,18.80
2018-09-11T20:08:35.333Z,18.70
2018-09-11T20:11:03.405Z,18.60
2018-09-11T20:13:31.422Z,18.50
2018-09-11T20:15:59.382Z,18.50
2018-09-11T20:18:27.325Z,18.40
2018-09-11T20:20:55.508Z,18.40
2018-09-11T20:23:23.701Z,18.40
2018-09-11T20:25:51.804Z,18.40
2018-09-11T20:28:20.022Z,18.40
2018-09-11T20:30:48.260Z,18.30
2018-09-11T20:33:16.240Z,18.30
2018-09-11T20:35:44.159Z,18.20
2018-09-11T20:38:12.298Z,18.10
2018-09-11T20:40:40.463Z,18.00
2018-09-11T20:43:08.401Z,18.10
2018-09-11T20:45:36.403Z,18.00
2018-09-11T20:48:04.313Z,17.90
2018-09-11T20:50:32.414Z,17.90
2018-09-11T20:53:00.458Z,17.90
2018-09-11T20:55:28.251Z,17.80
2018-09-11T20:57:56.174Z,17.80
2018-09-11T21:00:24.048Z,17.80
2018-09-11T21:02:52.020Z,17.80
2018-09-11T21:05:20.089Z,17.80
2018-09-11T21:07:47.989Z,17.80
2018-09-11T21:10:16.171Z,17.70
2018-09-11T21:12:44.142Z,17.70
2018-09-11T21:15:12.259Z,17.70
2018-09-11T21:17:40.248Z,17.60
2018-09-11T21:20:08.043Z,17.60
2018-09-11T21:22:35.974Z,17.60
2018-09-11T21:25:03.988Z,17.60
2018-09-11T21:27:31.915Z,17.60
2018-09-11T21:29:59.885Z,17.60
2018-09-11T21:32:27.867Z,17.50
2018-09-11T21:34:55.815Z,17.50
2018-09-11T21:37:23.719Z,17.30
2018-09-11T21:39:51.515Z,17.20
2018-09-11T21:42:19.421Z,17.20
2018-09-11T21:44:47.378Z,17.20
2018-09-11T21:47:15.819Z,17.10
2018-09-11T21:49:43.678Z,17.00
2018-09-11T21:52:11.653Z,17.10
2018-09-11T21:54:39.439Z,17.10
2018-09-11T21:57:07.322Z,17.10
2018-09-11T21:59:35.220Z,17.10
2018-09-11T22:02:03.263Z,17.10
2018-09-11T22:04:31.447Z,17.00
2018-09-11T22:09:26.784Z,16.90
2018-09-11T22:11:54.904Z,16.90
2018-09-11T22:14:22.965Z,16.90
2018-09-11T22:16:50.877Z,16.80
2018-09-11T22:19:18.806Z,16.80
2018-09-11T22:21:46.514Z,16.80
2018-09-11T22:24:14.436Z,16.80
2018-09-11T22:26:42.400Z,16.80
2018-09-11T22:29:10.233Z,16.80
2018-09-11T22:31:38.110Z,16.70
2018-09-11T22:34:05.975Z,16.70
2018-09-11T22:36:33.994Z,16.60
2018-09-11T22:39:02.017Z,16.50
2018-09-11T22:41:29.953Z,16.50
2018-09-11T22:57:56.589Z,16.30
2018-09-11T23:00:35.711Z,16.20
2018-09-11T23:03:03.665Z,16.20
2018-09-11T23:05:31.689Z,16.10
2018-09-11T23:07:59.679Z,16.00
2018-09-11T23:10:27.540Z,16.00
2018-09-11T23:12:55.313Z,16.00
2018-09-11T23:15:23.224Z,15.90
2018-09-11T23:17:51.299Z,15.90
2018-09-11T23:20:19.086Z,15.90
2018-09-11T23:22:47.074Z,15.90
2018-09-11T23:25:14.906Z,15.80
2018-09-11T23:27:42.724Z,15.80
2018-09-11T23:30:10.718Z,15.80
2018-09-11T23:32:38.674Z,15.80
2018-09-11T23:35:06.491Z,15.70
2018-09-11T23:37:34.294Z,15.70
2018-09-11T23:40:02.081Z,15.70
2018-09-11T23:42:30.150Z,15.60
2018-09-11T23:44:58.223Z,15.60
2018-09-11T23:47:25.967Z,15.60
2018-09-11T23:49:53.738Z,15.60
2018-09-11T23:52:21.560Z,15.60
2018-09-11T23:54:49.363Z,15.60
2018-09-11T23:57:17.216Z,15.60
2018-09-11T23:59:45.110Z,15.60
